createdAt,value
2018-06-17T00:07:02.191Z,0
2018-06-17T00:17:00.658Z,0
2018-06-17T00:27:00.177Z,0
2018-06-17T00:37:00.135Z,0
2018-06-17T00:47:00.202Z,0
2018-06-17T00:57:00.148Z,0
2018-06-17T01:07:00.131Z,0
2018-06-17T01:17:00.135Z,0
2018-06-17T01:27:00.141Z,0
2018-06-17T01:37:00.176Z,0
2018-06-17T01:47:00.142Z,0
2018-06-17T01:57:00.237Z,0
2018-06-17T02:07:00.264Z,0
2018-06-17T02:17:00.116Z,0
2018-06-17T02:27:00.239Z,0
2018-06-17T02:37:00.218Z,0
2018-06-17T02:47:00.150Z,0
2018-06-17T02:57:00.222Z,0
2018-06-17T03:07:00.159Z,0
2018-06-17T03:17:00.141Z,10
2018-06-17T03:27:00.195Z,20
2018-06-17T03:37:00.134Z,30
2018-06-17T03:47:00.177Z,35
2018-06-17T03:57:00.169Z,35
2018-06-17T04:07:00.159Z,40
2018-06-17T04:17:00.162Z,80
2018-06-17T04:27:00.114Z,95
2018-06-17T04:37:00.192Z,75
2018-06-17T04:47:11.610Z,70
2018-06-17T04:57:00.157Z,75
2018-06-17T05:07:00.186Z,135
2018-06-17T05:17:00.139Z,170
2018-06-17T05:27:00.212Z,145
2018-06-17T05:37:00.179Z,115
2018-06-17T05:47:00.123Z,240
2018-06-17T05:57:00.229Z,235
2018-06-17T06:07:00.176Z,285
2018-06-17T06:17:00.213Z,265
2018-06-17T06:27:00.251Z,285
2018-06-17T06:37:00.222Z,305
2018-06-17T06:47:00.222Z,310
2018-06-17T06:57:00.302Z,345
2018-06-17T07:07:00.279Z,390
2018-06-17T07:17:00.288Z,380
2018-06-17T07:27:00.170Z,345
2018-06-17T07:37:00.248Z,350
2018-06-17T07:47:00.205Z,370
2018-06-17T07:57:00.234Z,435
2018-06-17T08:07:00.258Z,355
2018-06-17T08:17:00.310Z,450
2018-06-17T08:27:00.313Z,365
2018-06-17T08:37:00.436Z,405
2018-06-17T08:47:00.432Z,285
2018-06-17T08:57:01.303Z,305
2018-06-17T09:07:00.205Z,350
2018-06-17T09:17:00.298Z,340
2018-06-17T09:27:00.219Z,235
2018-06-17T09:37:00.267Z,260
2018-06-17T09:47:00.290Z,260
2018-06-17T09:57:00.208Z,310
2018-06-17T10:07:00.316Z,290
2018-06-17T10:17:00.278Z,245
2018-06-17T10:27:00.278Z,310
2018-06-17T10:37:00.252Z,255
2018-06-17T10:47:00.218Z,305
2018-06-17T10:57:00.274Z,370
2018-06-17T11:07:00.324Z,315
2018-06-17T11:17:00.398Z,185
2018-06-17T11:27:00.273Z,310
2018-06-17T11:37:00.217Z,295
2018-06-17T11:47:00.342Z,225
2018-06-17T11:57:00.322Z,320
2018-06-17T12:07:00.313Z,355
2018-06-17T12:17:00.267Z,340
2018-06-17T12:27:00.460Z,330
2018-06-17T12:37:00.299Z,340
2018-06-17T12:47:00.290Z,305
2018-06-17T12:57:00.436Z,300
2018-06-17T13:07:01.160Z,250
2018-06-17T13:17:00.277Z,225
2018-06-17T13:27:00.373Z,220
2018-06-17T13:37:00.328Z,265
2018-06-17T13:47:00.492Z,290
2018-06-17T13:57:03.669Z,300
2018-06-17T14:07:19.620Z,305
2018-06-17T14:17:00.351Z,295
2018-06-17T14:27:00.353Z,305
2018-06-17T14:37:00.356Z,335
2018-06-17T14:47:00.342Z,205
2018-06-17T14:57:00.335Z,160
2018-06-17T15:07:15.328Z,225
2018-06-17T15:17:00.769Z,215
2018-06-17T15:27:00.320Z,245
2018-06-17T15:37:13.771Z,225
2018-06-17T15:47:00.332Z,210
2018-06-17T15:57:00.338Z,170
2018-06-17T16:07:00.290Z,140
2018-06-17T16:17:29.615Z,160
2018-06-17T16:27:26.463Z,140
2018-06-17T16:37:04.868Z,115
2018-06-17T16:47:00.402Z,130
2018-06-17T16:57:20.302Z,90
2018-06-17T17:07:42.532Z,190
2018-06-17T17:17:00.350Z,115
2018-06-17T17:27:45.425Z,100
2018-06-17T17:37:00.400Z,105
2018-06-17T17:47:01.674Z,125
2018-06-17T17:57:00.352Z,95
2018-06-17T18:07:00.391Z,60
2018-06-17T18:17:00.353Z,55
2018-06-17T18:27:00.384Z,50
2018-06-17T18:37:00.380Z,40
2018-06-17T18:47:00.316Z,10
2018-06-17T18:57:00.386Z,5
2018-06-17T19:07:00.306Z,5
2018-06-17T19:17:00.504Z,0
2018-06-17T19:27:00.393Z,0
2018-06-17T19:37:00.378Z,0
2018-06-17T19:47:00.412Z,0
2018-06-17T19:57:00.321Z,0
2018-06-17T20:07:00.367Z,0
2018-06-17T20:17:00.331Z,0
2018-06-17T20:27:02.629Z,0
2018-06-17T20:37:00.358Z,0
2018-06-17T20:47:00.283Z,0
2018-06-17T20:57:00.366Z,0
2018-06-17T21:07:40.672Z,0
2018-06-17T21:17:00.345Z,0
2018-06-17T21:27:01.596Z,0
2018-06-17T21:37:00.363Z,0
2018-06-17T21:47:00.344Z,0
2018-06-17T21:57:00.377Z,0
2018-06-17T22:07:00.491Z,0
2018-06-17T22:17:00.348Z,0
2018-06-17T22:27:00.484Z,0
2018-06-17T22:37:00.348Z,0
2018-06-17T22:47:00.342Z,0
2018-06-17T22:57:00.423Z,0
2018-06-17T23:07:00.361Z,0
2018-06-17T23:17:00.293Z,0
2018-06-17T23:27:00.324Z,0
2018-06-17T23:37:00.310Z,0
2018-06-17T23:47:00.341Z,0
2018-06-17T23:57:00.311Z,0
